createdAt,value
2022-09-27T00:01:51.048Z,100140.75
2022-09-27T00:03:55.889Z,100146.78
2022-09-27T00:06:13.469Z,100145.03
2022-09-27T00:08:52.619Z,100143.31
2022-09-27T00:11:15.293Z,100145.91
2022-09-27T00:13:17.227Z,100148.50
2022-09-27T00:15:19.545Z,100144.19
2022-09-27T00:17:21.663Z,100138.16
2022-09-27T00:19:24.318Z,100141.59
2022-09-27T00:21:26.539Z,100162.25
2022-09-27T00:23:28.591Z,100145.91
2022-09-27T00:25:30.696Z,100155.38
2022-09-27T00:27:32.892Z,100151.94
2022-09-27T00:29:35.019Z,100153.66
2022-09-27T00:31:38.136Z,100151.06
2022-09-27T00:33:40.057Z,100157.97
2022-09-27T00:35:42.037Z,100149.34
2022-09-27T00:37:44.139Z,100149.34
2022-09-27T00:39:46.200Z,100157.97
2022-09-27T00:41:48.693Z,100151.06
2022-09-27T00:43:58.531Z,100148.47
2022-09-27T00:46:04.068Z,100145.94
2022-09-27T00:48:06.662Z,100145.06
2022-09-27T00:50:23.799Z,100146.75
2022-09-27T00:52:37.494Z,100155.38
2022-09-27T00:54:43.315Z,100149.34
2022-09-27T00:56:47.123Z,100156.22
2022-09-27T00:58:57.230Z,100149.34
2022-09-27T01:01:07.111Z,100148.50
2022-09-27T01:03:18.807Z,100148.50
2022-09-27T01:05:25.241Z,100158.78
2022-09-27T01:07:27.287Z,100157.94
2022-09-27T01:09:29.732Z,100155.38
2022-09-27T01:11:58.165Z,100161.38
2022-09-27T01:14:18.220Z,100158.78
2022-09-27T01:16:41.826Z,100157.06
2022-09-27T01:19:03.973Z,100149.34
2022-09-27T01:21:15.895Z,100145.00
2022-09-27T01:23:49.053Z,100137.28
2022-09-27T01:26:29.377Z,100141.59
2022-09-27T01:29:04.724Z,100142.41
2022-09-27T01:31:28.655Z,100142.41
2022-09-27T01:33:59.452Z,100143.28
2022-09-27T01:36:38.563Z,100143.28
2022-09-27T01:39:08.161Z,100147.56
2022-09-27T01:41:36.271Z,100148.44
2022-09-27T01:44:05.015Z,100159.63
2022-09-27T01:46:13.341Z,100151.88
2022-09-27T01:48:24.975Z,100154.47
2022-09-27T01:50:37.653Z,100151.03
2022-09-27T01:53:06.002Z,100137.22
2022-09-27T01:55:14.184Z,100135.53
2022-09-27T01:57:22.899Z,100138.94
2022-09-27T01:59:48.047Z,100136.38
2022-09-27T02:02:37.188Z,100141.53
2022-09-27T02:05:10.145Z,100145.78
2022-09-27T02:07:58.697Z,100150.97
2022-09-27T02:10:37.906Z,100157.75
2022-09-27T02:12:49.895Z,100152.63
2022-09-27T02:15:10.808Z,100156.06
2022-09-27T02:17:22.155Z,100158.59
2022-09-27T02:19:47.515Z,100150.88
2022-09-27T02:22:00.922Z,100156.03
2022-09-27T02:24:06.544Z,100170.66
2022-09-27T02:26:17.651Z,100151.72
2022-09-27T02:28:35.324Z,100161.16
2022-09-27T02:30:38.654Z,100162.00
2022-09-27T02:32:41.912Z,100156.84
2022-09-27T02:34:45.329Z,100144.81
2022-09-27T02:36:48.755Z,100153.41
2022-09-27T02:38:52.350Z,100145.66
2022-09-27T02:40:54.966Z,100145.63
2022-09-27T02:42:57.663Z,100149.06
2022-09-27T02:45:00.109Z,100154.16
2022-09-27T02:47:23.305Z,100152.47
2022-09-27T02:49:44.797Z,100151.59
2022-09-27T02:52:15.331Z,100145.56
2022-09-27T02:54:21.986Z,100142.16
2022-09-27T02:57:04.609Z,100135.25
2022-09-27T02:59:34.959Z,100134.31
2022-09-27T03:01:36.966Z,100133.47
2022-09-27T03:03:51.565Z,100123.13
2022-09-27T03:06:01.222Z,100127.41
2022-09-27T03:08:04.969Z,100117.91
2022-09-27T03:10:07.839Z,100120.50
2022-09-27T03:12:09.858Z,100127.41
2022-09-27T03:14:11.893Z,100113.66
2022-09-27T03:16:16.228Z,100122.25
2022-09-27T03:18:18.216Z,100119.66
2022-09-27T03:20:20.377Z,100117.06
2022-09-27T03:22:22.511Z,100118.75
2022-09-27T03:24:24.505Z,100115.31
2022-09-27T03:26:27.532Z,100119.56
2022-09-27T03:28:30.180Z,100116.13
2022-09-27T03:30:32.274Z,100115.28
2022-09-27T03:32:34.390Z,100118.75
2022-09-27T03:34:36.435Z,100128.19
2022-09-27T03:36:38.309Z,100127.28
2022-09-27T03:38:40.736Z,100134.13
2022-09-27T03:40:42.931Z,100128.94
2022-09-27T03:42:49.482Z,100126.41
2022-09-27T03:45:01.938Z,100124.66
2022-09-27T03:47:04.264Z,100121.25
2022-09-27T03:49:09.286Z,100119.50
2022-09-27T03:51:12.971Z,100122.91
2022-09-27T03:53:15.014Z,100125.50
2022-09-27T03:55:17.380Z,100127.19
2022-09-27T03:57:19.546Z,100125.50
2022-09-27T03:59:21.536Z,100122.06
2022-09-27T04:01:23.594Z,100126.31
2022-09-27T04:03:27.286Z,100120.34
2022-09-27T04:05:30.533Z,100123.78
2022-09-27T04:07:32.292Z,100129.78
2022-09-27T04:09:34.310Z,100125.44
2022-09-27T04:11:36.275Z,100122.91
2022-09-27T04:13:38.816Z,100116.91
2022-09-27T04:15:41.046Z,100123.75
2022-09-27T04:17:43.419Z,100120.28
2022-09-27T04:19:45.471Z,100134.88
2022-09-27T04:21:47.705Z,100144.31
2022-09-27T04:23:49.939Z,100127.19
2022-09-27T04:25:51.991Z,100130.59
2022-09-27T04:27:55.562Z,100132.31
2022-09-27T04:29:57.553Z,100145.22
2022-09-27T04:31:59.966Z,100132.28
2022-09-27T04:34:02.010Z,100140.03
2022-09-27T04:36:22.512Z,100128.88
2022-09-27T04:38:24.266Z,100123.72
2022-09-27T04:40:26.620Z,100130.59
2022-09-27T04:42:28.831Z,100128.84
2022-09-27T04:44:30.846Z,100127.13
2022-09-27T04:46:33.167Z,100124.56
2022-09-27T04:48:35.508Z,100113.41
2022-09-27T04:50:38.289Z,100122.03
2022-09-27T04:52:40.778Z,100117.69
2022-09-27T04:54:42.871Z,100116.03
2022-09-27T04:56:44.937Z,100122.06
2022-09-27T04:58:46.996Z,100125.50
2022-09-27T05:00:52.858Z,100120.28
2022-09-27T05:02:54.973Z,100110.03
2022-09-27T05:05:04.554Z,100109.16
2022-09-27T05:07:06.587Z,100106.53
2022-09-27T05:09:08.835Z,100106.53
2022-09-27T05:11:10.964Z,100108.25
2022-09-27T05:13:13.426Z,100119.44
2022-09-27T05:15:15.424Z,100116.03
2022-09-27T05:17:18.891Z,100113.41
2022-09-27T05:19:20.882Z,100116.84
2022-09-27T05:21:23.151Z,100115.19
2022-09-27T05:23:26.102Z,100118.59
2022-09-27T05:25:28.121Z,100110.81
2022-09-27T05:27:31.299Z,100103.03
2022-09-27T05:29:33.441Z,100105.69
2022-09-27T05:31:35.446Z,100103.09
2022-09-27T05:33:37.470Z,100106.59
2022-09-27T05:35:45.568Z,100101.44
2022-09-27T05:37:59.519Z,100101.44
2022-09-27T05:40:16.881Z,100103.19
2022-09-27T05:42:24.348Z,100105.75
2022-09-27T05:44:26.376Z,100098.88
2022-09-27T05:46:28.400Z,100102.31
2022-09-27T05:48:30.572Z,100103.16
2022-09-27T05:50:32.944Z,100089.44
2022-09-27T05:52:35.050Z,100096.31
2022-09-27T05:54:37.081Z,100089.44
2022-09-27T05:56:39.203Z,100090.28
2022-09-27T05:58:41.258Z,100089.44
2022-09-27T06:00:44.045Z,100097.16
2022-09-27T06:02:46.178Z,100086.91
2022-09-27T06:04:48.255Z,100085.19
2022-09-27T06:06:50.299Z,100084.31
2022-09-27T06:08:52.503Z,100083.47
2022-09-27T06:11:04.593Z,100086.97
2022-09-27T06:13:15.683Z,100082.56
2022-09-27T06:15:17.846Z,100081.72
2022-09-27T06:17:19.875Z,100083.47
2022-09-27T06:19:22.090Z,100094.69
2022-09-27T06:21:24.639Z,100089.53
2022-09-27T06:23:27.443Z,100095.56
2022-09-27T06:25:30.728Z,100105.88
2022-09-27T06:27:32.899Z,100097.28
2022-09-27T06:29:35.488Z,100101.63
2022-09-27T06:31:37.629Z,100093.84
2022-09-27T06:33:39.863Z,100086.16
2022-09-27T06:35:43.092Z,100082.72
2022-09-27T06:37:45.154Z,100074.03
2022-09-27T06:39:49.479Z,100071.50
2022-09-27T06:41:57.989Z,100063.78
2022-09-27T06:43:59.989Z,100078.19
2022-09-27T06:46:06.556Z,100069.63
2022-09-27T06:48:12.782Z,100064.56
2022-09-27T06:50:15.316Z,100060.28
2022-09-27T06:52:17.332Z,100060.22
2022-09-27T06:54:21.452Z,100063.72
2022-09-27T06:56:23.681Z,100055.97
2022-09-27T06:58:44.351Z,100057.69
2022-09-27T07:00:51.084Z,100053.41
2022-09-27T07:02:55.130Z,100063.78
2022-09-27T07:05:12.534Z,100076.53
2022-09-27T07:07:15.040Z,100074.88
2022-09-27T07:09:17.328Z,100077.53
2022-09-27T07:11:20.797Z,100079.22
2022-09-27T07:13:23.388Z,100079.22
2022-09-27T07:15:25.415Z,100079.25
2022-09-27T07:17:28.084Z,100078.44
2022-09-27T07:19:30.175Z,100083.59
2022-09-27T07:21:33.470Z,100081.00
2022-09-27T07:23:36.531Z,100084.47
2022-09-27T07:25:38.629Z,100079.28
2022-09-27T07:27:44.055Z,100082.75
2022-09-27T07:29:47.273Z,100082.72
2022-09-27T07:31:49.419Z,100075.91
2022-09-27T07:33:53.008Z,100081.00
2022-09-27T07:35:55.271Z,100070.75
2022-09-27T07:37:58.613Z,100077.63
2022-09-27T07:40:01.485Z,100069.94
2022-09-27T07:42:03.353Z,100069.09
2022-09-27T07:44:06.333Z,100067.38
2022-09-27T07:46:09.304Z,100072.53
2022-09-27T07:48:14.265Z,100063.94
2022-09-27T07:50:16.244Z,100063.94
2022-09-27T07:52:19.335Z,100052.78
2022-09-27T07:54:20.937Z,100051.81
2022-09-27T07:56:22.575Z,100051.78
2022-09-27T07:58:24.378Z,100050.06
2022-09-27T08:00:26.701Z,100047.50
2022-09-27T08:02:28.495Z,100046.66
2022-09-27T08:04:31.182Z,100052.69
2022-09-27T08:06:32.804Z,100047.63
2022-09-27T08:08:34.581Z,100048.44
2022-09-27T08:10:36.454Z,100043.31
2022-09-27T08:12:38.078Z,100050.97
2022-09-27T08:14:45.051Z,100050.19
2022-09-27T08:16:49.895Z,100051.78
2022-09-27T08:18:56.581Z,100047.63
2022-09-27T08:20:59.242Z,100045.91
2022-09-27T08:23:00.863Z,100038.22
2022-09-27T08:25:10.449Z,100039.94
2022-09-27T08:27:23.126Z,100026.19
2022-09-27T08:29:25.838Z,100030.50
2022-09-27T08:31:27.515Z,100030.53
2022-09-27T08:33:32.842Z,100036.50
2022-09-27T08:35:35.864Z,100023.59
2022-09-27T08:37:37.833Z,100032.22
2022-09-27T08:39:42.616Z,100023.66
2022-09-27T08:41:59.162Z,100025.38
2022-09-27T08:44:21.395Z,100031.44
2022-09-27T08:47:09.602Z,100027.09
2022-09-27T08:49:47.182Z,100027.09
2022-09-27T08:51:55.808Z,100021.09
2022-09-27T08:54:14.820Z,100012.50
2022-09-27T08:56:21.354Z,100019.38
2022-09-27T08:58:33.863Z,100014.19
2022-09-27T09:00:35.741Z,100017.66
2022-09-27T09:02:38.251Z,100015.91
2022-09-27T09:04:41.923Z,100011.63
2022-09-27T09:06:55.302Z,100009.91
2022-09-27T09:09:10.992Z,100028.84
2022-09-27T09:11:51.234Z,100010.78
2022-09-27T09:14:17.861Z,100000.44
2022-09-27T09:16:41.637Z,100012.50
2022-09-27T09:19:05.719Z,100009.06
2022-09-27T09:21:45.395Z,100005.59
2022-09-27T09:24:02.138Z,99994.41
2022-09-27T09:26:34.964Z,100003.88
2022-09-27T09:28:45.675Z,100003.03
2022-09-27T09:31:10.391Z,99996.13
2022-09-27T09:33:16.768Z,99994.41
2022-09-27T09:35:25.023Z,99996.97
2022-09-27T09:38:01.421Z,99996.13
2022-09-27T09:40:15.049Z,99996.97
2022-09-27T09:42:28.432Z,99987.50
2022-09-27T09:45:08.790Z,99983.19
2022-09-27T09:47:27.028Z,99990.91
2022-09-27T09:49:43.315Z,99990.03
2022-09-27T09:51:51.242Z,99990.03
2022-09-27T09:54:19.689Z,99982.31
2022-09-27T09:56:33.164Z,99979.75
2022-09-27T09:58:49.019Z,99982.31
2022-09-27T10:00:59.548Z,99977.13
2022-09-27T10:03:03.337Z,99985.72
2022-09-27T10:05:10.179Z,99976.25
2022-09-27T10:07:12.461Z,99973.69
2022-09-27T10:09:22.438Z,99971.97
2022-09-27T10:11:39.556Z,99966.72
2022-09-27T10:13:41.230Z,99969.25
2022-09-27T10:15:44.506Z,99963.28
2022-09-27T10:17:53.623Z,99965.84
2022-09-27T10:19:58.458Z,99958.06
2022-09-27T10:22:03.345Z,99946.03
2022-09-27T10:24:23.367Z,99941.63
2022-09-27T10:26:29.857Z,99937.28
2022-09-27T10:28:47.453Z,99942.41
2022-09-27T10:30:56.404Z,99938.94
2022-09-27T10:33:06.726Z,99934.59
2022-09-27T10:35:30.375Z,99935.44
2022-09-27T10:37:32.044Z,99928.66
2022-09-27T10:39:35.738Z,99929.41
2022-09-27T10:41:41.497Z,99919.03
2022-09-27T10:43:43.151Z,99924.25
2022-09-27T10:45:44.931Z,99930.22
2022-09-27T10:47:47.053Z,99918.19
2022-09-27T10:49:52.711Z,99922.50
2022-09-27T10:52:01.140Z,99923.41
2022-09-27T10:54:03.018Z,99920.91
2022-09-27T10:56:04.927Z,99922.59
2022-09-27T10:58:07.754Z,99913.16
2022-09-27T11:00:23.934Z,99911.47
2022-09-27T11:02:32.996Z,99911.50
2022-09-27T11:04:37.453Z,99910.69
2022-09-27T11:06:39.361Z,99900.34
2022-09-27T11:08:41.031Z,99903.75
2022-09-27T11:10:42.717Z,99921.81
2022-09-27T11:12:44.411Z,99924.41
2022-09-27T11:15:06.834Z,99939.91
2022-09-27T11:17:47.510Z,99941.66
2022-09-27T11:20:16.676Z,99935.59
2022-09-27T11:22:20.942Z,99934.78
2022-09-27T11:24:37.776Z,99919.28
2022-09-27T11:27:10.158Z,99913.28
2022-09-27T11:29:37.653Z,99905.59
2022-09-27T11:32:12.607Z,99907.31
2022-09-27T11:34:28.023Z,99902.16
2022-09-27T11:36:54.396Z,99907.31
2022-09-27T11:39:22.388Z,99906.41
2022-09-27T11:41:36.367Z,99903.84
2022-09-27T11:43:49.923Z,99897.78
2022-09-27T11:46:25.339Z,99896.94
2022-09-27T11:48:42.930Z,99900.38
2022-09-27T11:51:03.133Z,99905.53
2022-09-27T11:53:17.071Z,99895.22
2022-09-27T11:55:18.667Z,99897.75
2022-09-27T11:57:26.637Z,99896.03
2022-09-27T12:00:10.652Z,99890.78
2022-09-27T12:02:30.335Z,99890.84
2022-09-27T12:04:42.577Z,99883.91
2022-09-27T12:07:04.365Z,99880.41
2022-09-27T12:09:16.345Z,99872.63
2022-09-27T12:11:34.847Z,99878.66
2022-09-27T12:13:45.717Z,99866.53
2022-09-27T12:15:48.160Z,99862.94
2022-09-27T12:18:07.345Z,99862.88
2022-09-27T12:20:28.613Z,99862.78
2022-09-27T12:22:57.610Z,99854.94
2022-09-27T12:25:05.853Z,99856.53
2022-09-27T12:27:15.669Z,99857.56
2022-09-27T12:29:39.614Z,99853.06
2022-09-27T12:31:48.125Z,99847.09
2022-09-27T12:33:54.107Z,99843.59
2022-09-27T12:36:05.758Z,99846.16
2022-09-27T12:38:19.241Z,99842.72
2022-09-27T12:40:29.864Z,99847.88
2022-09-27T12:42:42.952Z,99841.03
2022-09-27T12:44:47.574Z,99845.31
2022-09-27T12:47:10.889Z,99837.63
2022-09-27T12:49:15.231Z,99844.56
2022-09-27T12:51:20.515Z,99845.53
2022-09-27T12:53:29.297Z,99854.09
2022-09-27T12:55:48.994Z,99845.47
2022-09-27T12:58:34.334Z,99848.84
2022-09-27T13:00:52.742Z,99852.31
2022-09-27T13:03:17.200Z,99858.28
2022-09-27T13:05:29.089Z,99852.25
2022-09-27T13:07:46.401Z,99853.06
2022-09-27T13:10:12.308Z,99847.06
2022-09-27T13:12:20.710Z,99853.19
2022-09-27T13:14:26.573Z,99854.13
2022-09-27T13:16:28.566Z,99861.13
2022-09-27T13:18:36.175Z,99861.97
2022-09-27T13:20:46.641Z,99855.19
2022-09-27T13:22:48.617Z,99842.34
2022-09-27T13:25:01.092Z,99845.81
2022-09-27T13:27:03.295Z,99833.81
2022-09-27T13:29:22.291Z,99835.56
2022-09-27T13:31:59.420Z,99831.16
2022-09-27T13:34:01.065Z,99830.31
2022-09-27T13:36:24.648Z,99825.97
2022-09-27T13:38:26.364Z,99819.94
2022-09-27T13:40:32.262Z,99816.50
2022-09-27T13:42:46.308Z,99806.19
2022-09-27T13:45:22.990Z,99800.09
2022-09-27T13:47:40.254Z,99796.63
2022-09-27T13:49:47.954Z,99802.63
2022-09-27T13:51:55.111Z,99799.16
2022-09-27T13:53:59.823Z,99795.72
2022-09-27T13:56:02.379Z,99793.06
2022-09-27T13:58:15.576Z,99790.47
2022-09-27T14:00:22.561Z,99787.78
2022-09-27T14:02:36.545Z,99797.19
2022-09-27T14:05:06.038Z,99799.63
2022-09-27T14:07:12.470Z,99792.50
2022-09-27T14:09:40.022Z,99796.47
2022-09-27T14:11:44.306Z,99785.75
2022-09-27T14:13:48.508Z,99786.19
2022-09-27T14:15:52.302Z,99785.84
2022-09-27T14:17:56.165Z,99776.69
2022-09-27T14:19:57.792Z,99775.50
2022-09-27T14:21:59.654Z,99774.50
2022-09-27T14:24:26.509Z,99776.19
2022-09-27T14:26:29.469Z,99777.97
2022-09-27T14:28:40.808Z,99767.69
2022-09-27T14:30:43.774Z,99775.59
2022-09-27T14:32:58.543Z,99767.91
2022-09-27T14:35:27.464Z,99767.94
2022-09-27T14:37:30.129Z,99763.66
2022-09-27T14:39:35.835Z,99755.91
2022-09-27T14:41:38.157Z,99757.38
2022-09-27T14:43:44.530Z,99751.91
2022-09-27T14:45:48.946Z,99756.75
2022-09-27T14:47:51.630Z,99753.16
2022-09-27T14:50:05.673Z,99751.13
2022-09-27T14:52:17.979Z,99744.03
2022-09-27T14:54:29.287Z,99745.84
2022-09-27T14:56:33.956Z,99737.91
2022-09-27T14:58:47.270Z,99734.56
2022-09-27T15:00:50.499Z,99744.09
2022-09-27T15:02:55.557Z,99736.59
2022-09-27T15:05:06.986Z,99754.25
2022-09-27T15:07:08.753Z,99752.75
2022-09-27T15:09:14.232Z,99765.06
2022-09-27T15:11:20.419Z,99777.34
2022-09-27T15:13:22.702Z,99794.06
2022-09-27T15:15:27.105Z,99790.03
2022-09-27T15:17:28.899Z,99776.44
2022-09-27T15:19:30.801Z,99778.53
2022-09-27T15:21:37.942Z,99777.81
2022-09-27T15:23:45.150Z,99783.94
2022-09-27T15:26:03.075Z,99778.03
2022-09-27T15:28:14.614Z,99781.63
2022-09-27T15:30:29.677Z,99778.34
2022-09-27T15:32:31.907Z,99780.19
2022-09-27T15:34:35.459Z,99771.56
2022-09-27T15:36:52.127Z,99772.41
2022-09-27T15:39:07.617Z,99765.50
2022-09-27T15:41:23.022Z,99766.22
2022-09-27T15:43:32.544Z,99771.31
2022-09-27T15:45:39.021Z,99770.53
2022-09-27T15:47:42.656Z,99762.84
2022-09-27T15:49:44.517Z,99762.09
2022-09-27T15:51:48.488Z,99759.63
2022-09-27T15:53:50.264Z,99763.16
2022-09-27T15:55:51.938Z,99749.34
2022-09-27T15:58:00.050Z,99752.88
2022-09-27T16:00:02.435Z,99747.72
2022-09-27T16:02:12.681Z,99749.59
2022-09-27T16:04:14.327Z,99745.31
2022-09-27T16:06:16.061Z,99752.22
2022-09-27T16:08:17.696Z,99754.00
2022-09-27T16:10:26.245Z,99748.00
2022-09-27T16:12:30.272Z,99752.34
2022-09-27T16:14:31.943Z,99753.22
2022-09-27T16:16:34.281Z,99755.78
2022-09-27T16:18:35.915Z,99750.69
2022-09-27T16:20:38.550Z,99757.59
2022-09-27T16:22:40.201Z,99746.38
2022-09-27T16:24:41.846Z,99746.38
2022-09-27T16:26:43.719Z,99748.09
2022-09-27T16:28:45.925Z,99745.50
2022-09-27T16:30:48.391Z,99744.66
2022-09-27T16:32:51.360Z,99750.69
2022-09-27T16:35:06.320Z,99749.03
2022-09-27T16:37:10.049Z,99755.09
2022-09-27T16:39:13.472Z,99749.94
2022-09-27T16:41:15.099Z,99756.88
2022-09-27T16:43:17.014Z,99751.72
2022-09-27T16:45:19.674Z,99748.28
2022-09-27T16:47:21.654Z,99749.13
2022-09-27T16:49:43.733Z,99751.75
2022-09-27T16:52:01.043Z,99753.47
2022-09-27T16:54:05.963Z,99748.44
2022-09-27T16:56:07.689Z,99750.09
2022-09-27T16:58:09.430Z,99750.94
2022-09-27T17:00:12.155Z,99752.72
2022-09-27T17:02:14.818Z,99751.84
2022-09-27T17:04:16.619Z,99739.84
2022-09-27T17:06:19.902Z,99747.56
2022-09-27T17:08:29.124Z,99749.31
2022-09-27T17:10:31.981Z,99747.59
2022-09-27T17:12:34.666Z,99742.47
2022-09-27T17:14:36.412Z,99743.31
2022-09-27T17:16:38.084Z,99740.72
2022-09-27T17:18:40.491Z,99743.31
2022-09-27T17:20:42.691Z,99744.19
2022-09-27T17:22:45.096Z,99745.06
2022-09-27T17:25:05.668Z,99741.69
2022-09-27T17:27:07.353Z,99739.06
2022-09-27T17:29:12.739Z,99739.97
2022-09-27T17:31:17.821Z,99732.19
2022-09-27T17:33:21.865Z,99733.16
2022-09-27T17:35:23.598Z,99735.72
2022-09-27T17:37:25.460Z,99728.84
2022-09-27T17:39:27.117Z,99742.72
2022-09-27T17:41:29.700Z,99734.94
2022-09-27T17:43:34.073Z,99740.09
2022-09-27T17:45:35.794Z,99738.41
2022-09-27T17:47:56.156Z,99741.84
2022-09-27T17:50:16.253Z,99745.34
2022-09-27T17:52:18.117Z,99741.91
2022-09-27T17:54:23.389Z,99741.13
2022-09-27T17:56:25.183Z,99744.56
2022-09-27T17:58:26.838Z,99741.09
2022-09-27T18:00:29.225Z,99736.84
2022-09-27T18:02:30.980Z,99746.28
2022-09-27T18:04:33.211Z,99740.34
2022-09-27T18:06:37.377Z,99742.91
2022-09-27T18:08:39.489Z,99748.88
2022-09-27T18:10:41.187Z,99757.56
2022-09-27T18:13:02.301Z,99752.34
2022-09-27T18:15:09.294Z,99758.34
2022-09-27T18:17:12.989Z,99761.84
2022-09-27T18:19:16.775Z,99748.91
2022-09-27T18:21:28.014Z,99754.09
2022-09-27T18:23:34.826Z,99751.47
2022-09-27T18:25:41.237Z,99755.84
2022-09-27T18:27:44.769Z,99750.66
2022-09-27T18:29:46.417Z,99752.41
2022-09-27T18:31:49.202Z,99747.22
2022-09-27T18:33:51.174Z,99754.13
2022-09-27T18:36:13.638Z,99755.84
2022-09-27T18:38:15.264Z,99761.94
2022-09-27T18:40:32.448Z,99753.28
2022-09-27T18:42:39.233Z,99748.13
2022-09-27T18:44:40.990Z,99747.22
2022-09-27T18:46:43.266Z,99755.88
2022-09-27T18:48:46.175Z,99760.28
2022-09-27T18:50:47.875Z,99762.84
2022-09-27T18:52:52.532Z,99758.53
2022-09-27T18:55:05.776Z,99762.88
2022-09-27T18:57:07.422Z,99762.03
2022-09-27T18:59:10.120Z,99760.31
2022-09-27T19:01:14.512Z,99756.84
2022-09-27T19:03:16.336Z,99761.13
2022-09-27T19:05:17.964Z,99757.69
2022-09-27T19:07:19.580Z,99766.34
2022-09-27T19:09:21.355Z,99766.34
2022-09-27T19:11:23.144Z,99768.06
2022-09-27T19:13:29.666Z,99762.91
2022-09-27T19:15:34.513Z,99758.59
2022-09-27T19:17:36.466Z,99760.31
2022-09-27T19:19:38.080Z,99758.59
2022-09-27T19:21:39.983Z,99763.75
2022-09-27T19:23:42.267Z,99759.47
2022-09-27T19:25:44.039Z,99759.47
2022-09-27T19:27:45.660Z,99759.47
2022-09-27T19:29:47.304Z,99754.34
2022-09-27T19:31:49.030Z,99767.22
2022-09-27T19:33:54.015Z,99764.63
2022-09-27T19:36:01.560Z,99762.06
2022-09-27T19:38:04.221Z,99769.78
2022-09-27T19:40:12.929Z,99766.38
2022-09-27T19:42:16.517Z,99769.78
2022-09-27T19:44:18.652Z,99780.97
2022-09-27T19:46:22.432Z,99781.84
2022-09-27T19:48:24.765Z,99778.41
2022-09-27T19:50:26.666Z,99788.72
2022-09-27T19:52:28.850Z,99782.69
2022-09-27T19:54:31.665Z,99788.72
2022-09-27T19:56:34.508Z,99793.91
2022-09-27T19:58:38.752Z,99790.44
2022-09-27T20:00:40.757Z,99794.75
2022-09-27T20:02:43.560Z,99792.16
2022-09-27T20:04:46.212Z,99789.56
2022-09-27T20:06:49.093Z,99786.13
2022-09-27T20:08:52.022Z,99783.56
2022-09-27T20:11:05.195Z,99791.28
2022-09-27T20:13:08.530Z,99795.63
2022-09-27T20:15:15.535Z,99795.63
2022-09-27T20:17:17.811Z,99778.41
2022-09-27T20:19:19.948Z,99786.19
2022-09-27T20:21:24.408Z,99783.63
2022-09-27T20:23:26.539Z,99787.06
2022-09-27T20:25:30.845Z,99781.06
2022-09-27T20:27:33.436Z,99787.06
2022-09-27T20:29:35.698Z,99792.22
2022-09-27T20:32:02.848Z,99796.53
2022-09-27T20:34:06.404Z,99794.81
2022-09-27T20:36:23.022Z,99793.09
2022-09-27T20:38:24.663Z,99799.97
2022-09-27T20:40:31.003Z,99797.41
2022-09-27T20:42:32.738Z,99792.28
2022-09-27T20:44:34.358Z,99786.25
2022-09-27T20:46:37.455Z,99793.97
2022-09-27T20:48:39.639Z,99794.81
2022-09-27T20:50:41.468Z,99794.84
2022-09-27T20:52:43.538Z,99782.81
2022-09-27T20:54:57.689Z,99794.88
2022-09-27T20:56:59.395Z,99790.56
2022-09-27T20:59:14.889Z,99789.69
2022-09-27T21:01:18.237Z,99793.13
2022-09-27T21:03:21.963Z,99788.00
2022-09-27T21:05:23.875Z,99783.66
2022-09-27T21:07:25.532Z,99785.38
2022-09-27T21:09:27.318Z,99783.69
2022-09-27T21:11:41.951Z,99783.66
2022-09-27T21:13:46.033Z,99775.09
2022-09-27T21:15:48.290Z,99772.50
2022-09-27T21:17:53.520Z,99769.94
2022-09-27T21:19:55.724Z,99766.50
2022-09-27T21:21:57.756Z,99777.69
2022-09-27T21:24:01.515Z,99764.78
2022-09-27T21:26:07.318Z,99769.97
2022-09-27T21:28:09.267Z,99772.53
2022-09-27T21:30:11.658Z,99769.09
2022-09-27T21:32:13.268Z,99763.09
2022-09-27T21:34:14.892Z,99766.53
2022-09-27T21:36:17.206Z,99763.94
2022-09-27T21:38:18.847Z,99765.66
2022-09-27T21:40:20.583Z,99763.09
2022-09-27T21:42:24.274Z,99753.66
2022-09-27T21:44:26.017Z,99766.53
2022-09-27T21:46:28.807Z,99761.38
2022-09-27T21:48:31.394Z,99768.25
2022-09-27T21:50:33.026Z,99763.09
2022-09-27T21:52:34.666Z,99769.09
2022-09-27T21:54:36.295Z,99763.09
2022-09-27T21:56:39.676Z,99764.78
2022-09-27T21:58:42.604Z,99773.41
2022-09-27T22:00:44.870Z,99773.38
2022-09-27T22:02:46.579Z,99772.53
2022-09-27T22:04:49.386Z,99773.38
2022-09-27T22:06:53.078Z,99768.22
2022-09-27T22:08:56.260Z,99774.25
2022-09-27T22:10:57.936Z,99767.34
2022-09-27T22:12:59.594Z,99766.50
2022-09-27T22:15:01.394Z,99768.22
2022-09-27T22:17:03.055Z,99771.66
2022-09-27T22:19:05.059Z,99769.94
2022-09-27T22:21:08.971Z,99775.09
2022-09-27T22:23:10.644Z,99770.81
2022-09-27T22:25:12.337Z,99773.38
2022-09-27T22:27:13.963Z,99769.06
2022-09-27T22:29:15.833Z,99780.25
2022-09-27T22:31:21.204Z,99769.94
2022-09-27T22:33:23.003Z,99780.22
2022-09-27T22:35:25.156Z,99775.09
2022-09-27T22:37:26.828Z,99774.25
2022-09-27T22:39:29.303Z,99774.22
2022-09-27T22:41:31.046Z,99782.81
2022-09-27T22:43:33.001Z,99778.50
2022-09-27T22:45:34.890Z,99779.41
2022-09-27T22:47:40.895Z,99782.81
2022-09-27T22:49:42.967Z,99781.13
2022-09-27T22:51:44.648Z,99781.94
2022-09-27T22:53:46.345Z,99781.94
2022-09-27T22:56:01.837Z,99783.66
2022-09-27T22:58:06.234Z,99791.38
2022-09-27T23:00:08.365Z,99783.63
2022-09-27T23:02:10.019Z,99785.38
2022-09-27T23:04:11.915Z,99777.63
2022-09-27T23:06:15.236Z,99787.09
2022-09-27T23:08:16.995Z,99780.22
2022-09-27T23:10:23.051Z,99782.78
2022-09-27T23:12:24.677Z,99787.09
2022-09-27T23:14:26.323Z,99783.66
2022-09-27T23:16:28.046Z,99783.63
2022-09-27T23:18:29.856Z,99779.34
2022-09-27T23:20:31.526Z,99782.78
2022-09-27T23:22:33.606Z,99780.22
2022-09-27T23:24:35.254Z,99783.66
2022-09-27T23:26:36.894Z,99788.78
2022-09-27T23:28:38.672Z,99779.34
2022-09-27T23:30:40.468Z,99777.66
2022-09-27T23:32:45.323Z,99777.63
2022-09-27T23:34:56.181Z,99779.34
2022-09-27T23:36:57.919Z,99779.31
2022-09-27T23:39:01.000Z,99777.63
2022-09-27T23:41:02.752Z,99770.75
2022-09-27T23:43:04.641Z,99776.75
2022-09-27T23:45:06.751Z,99781.91
2022-09-27T23:47:08.437Z,99769.03
2022-09-27T23:49:10.763Z,99780.19
2022-09-27T23:51:13.108Z,99776.75
2022-09-27T23:53:14.823Z,99781.91
2022-09-27T23:55:16.561Z,99786.16
2022-09-27T23:57:18.191Z,99786.16
2022-09-27T23:59:20.429Z,99784.50
